Аэропорт: Черновцы. Черновцы

ICAO: UKLN

METAR:
2018/07/22 20:00
UKLN 222000Z VRB01MPS CAVOK 22/17 Q1008 R33/09//70 NOSIG
METAR:
2018/06/09 15:36
TAF 
      AMD TAF 
      AMD UKLN 091529Z 0915/1024 04005MPS 9999 BKN033CB TX28/0916Z TN17/0924Z 
      TEMPO 0916/0921 VRB09G14MPS 2100 -TSRA BKN007 BKN020CB